Time;durP1;ratioP1;P1;durP2;ratioP2;P2;SDS_P1;SDS_P2;PMS_P1;PMS_P2;Temp;Humidity;BMP_temperature;BMP_pressure;BME280_temperature;BME280_humidity;BME280_pressure;Samples;Min_cycle;Max_cycle;Signal;HPM_P1;HPM_P2
2023/07/26 07:51:49;;;;;;;1999.90;471.70;;;;;;;21.02;72.24;97943.31;106748;1276;109926;-93
2023/07/26 07:54:18;;;;;;;82.10;19.40;;;;;;;21.05;72.37;97940.57;106431;1282;98937;-89
2023/07/26 07:56:47;;;;;;;19.10;7.90;;;;;;;20.99;71.78;97939.95;106375;1282;107974;-90
2023/07/26 07:59:15;;;;;;;15.30;6.80;;;;;;;20.92;71.92;97941.27;106339;1282;95595;-89
2023/07/26 08:01:43;;;;;;;19.40;7.40;;;;;;;20.90;71.96;97945.09;106412;1282;95708;-91
2023/07/26 08:04:11;;;;;;;13.50;6.80;;;;;;;20.87;71.32;97942.52;106372;1282;110854;-90
2023/07/26 08:06:40;;;;;;;19.50;7.20;;;;;;;20.77;71.72;97936.79;106364;1282;95962;-91
2023/07/26 08:09:08;;;;;;;13.60;6.70;;;;;;;20.77;71.53;97932.34;106378;1282;107648;-91
2023/07/26 08:11:36;;;;;;;14.10;6.50;;;;;;;20.78;71.56;97933.89;106294;1282;95730;-91
2023/07/26 08:14:04;;;;;;;16.10;7.00;;;;;;;20.81;71.46;97937.39;106402;1282;95642;-90
2023/07/26 08:16:33;;;;;;;14.00;7.30;;;;;;;20.81;71.35;97936.88;106417;1282;111044;-91
2023/07/26 08:19:03;;;;;;;17.80;7.70;;;;;;;20.82;71.20;97932.15;106412;1282;95661;-91
2023/07/26 08:21:31;;;;;;;15.30;6.80;;;;;;;20.84;71.25;97932.77;106317;1282;107845;-89
2023/07/26 08:24:00;;;;;;;14.70;6.60;;;;;;;20.86;70.98;97934.98;106415;1282;95774;-91
2023/07/26 08:26:28;;;;;;;12.50;5.80;;;;;;;20.88;71.02;97934.08;106233;1282;95630;-90
2023/07/26 08:28:56;;;;;;;15.70;6.50;;;;;;;20.91;70.95;97937.95;106336;1282;110046;-90
2023/07/26 08:31:24;;;;;;;15.00;5.80;;;;;;;20.93;70.49;97937.83;106319;1282;95873;-91
2023/07/26 08:33:53;;;;;;;18.00;7.50;;;;;;;20.96;70.86;97943.03;106357;1282;107671;-91
2023/07/26 08:36:21;;;;;;;18.40;7.50;;;;;;;20.98;70.85;97946.23;106360;1282;95788;-91
2023/07/26 08:38:49;;;;;;;15.00;6.80;;;;;;;21.02;70.98;97947.52;106396;1282;95596;-90
2023/07/26 08:41:18;;;;;;;14.40;6.50;;;;;;;21.08;70.68;97953.71;106313;1283;110988;-90
2023/07/26 08:46:59;;;;;;;15.20;5.30;;;;;;;21.13;70.46;97960.09;106336;1282;107202;-92
2023/07/26 08:49:29;;;;;;;14.70;6.30;;;;;;;21.16;70.21;97952.85;106378;1282;95662;-90
2023/07/26 08:51:57;;;;;;;12.40;5.90;;;;;;;21.13;70.11;97951.23;106355;1282;95721;-90
2023/07/26 08:54:26;;;;;;;12.20;6.20;;;;;;;21.12;70.23;97946.66;106387;1282;111923;-90
2023/07/26 08:56:54;;;;;;;15.30;6.70;;;;;;;21.15;70.28;97939.67;106413;1282;95751;-90
2023/07/26 08:59:22;;;;;;;13.40;6.40;;;;;;;21.21;70.21;97946.20;106366;1282;107712;-91
2023/07/26 09:01:54;;;;;;;11.50;5.70;;;;;;;21.24;69.55;97949.22;106357;1282;95708;-90
2023/07/26 09:04:47;;;;;;;11.40;5.40;;;;;;;21.23;69.80;97945.56;106194;1282;95801;-91
2023/07/26 09:07:15;;;;;;;13.90;6.60;;;;;;;21.25;69.55;97953.23;106387;1282;111447;-91
2023/07/26 09:09:43;;;;;;;14.40;6.20;;;;;;;21.26;69.62;97951.77;106451;1282;95710;-91
2023/07/26 09:15:40;;;;;;;10.80;5.80;;;;;;;21.42;69.95;97957.80;106327;1282;95649;-91
2023/07/26 09:18:08;;;;;;;12.00;5.80;;;;;;;21.46;69.26;97962.11;106313;1282;95684;-91
2023/07/26 09:20:37;;;;;;;11.40;5.80;;;;;;;21.45;69.34;97956.79;106119;1283;111378;-91
2023/07/26 09:23:05;;;;;;;11.60;5.80;;;;;;;21.40;69.00;97959.33;106242;1282;193002;-91
2023/07/26 09:25:37;;;;;;;11.10;6.00;;;;;;;21.35;68.89;97956.02;106373;1282;107618;-90
2023/07/26 09:28:12;;;;;;;11.00;5.70;;;;;;;21.35;69.21;97959.67;106184;1282;95730;-90
2023/07/26 09:30:45;;;;;;;13.70;6.00;;;;;;;21.37;69.40;97957.76;106447;1282;95635;-91
2023/07/26 09:33:13;;;;;;;15.50;6.30;;;;;;;21.41;69.32;97957.91;106388;1282;112226;-90
2023/07/26 09:35:43;;;;;;;13.40;5.80;;;;;;;21.42;68.82;97958.37;106418;1282;95728;-90
2023/07/26 09:38:13;;;;;;;11.20;5.50;;;;;;;21.35;68.94;97957.67;106224;1282;107776;-90
2023/07/26 09:40:41;;;;;;;12.30;6.30;;;;;;;21.32;69.13;97955.77;106339;1282;95873;-91
2023/07/26 09:43:09;;;;;;;12.40;6.40;;;;;;;21.32;68.91;97949.69;106405;1283;95761;-90
2023/07/26 09:45:41;;;;;;;12.10;6.30;;;;;;;21.27;68.77;97951.48;106395;1282;111196;-90
2023/07/26 09:48:11;;;;;;;12.70;6.10;;;;;;;21.24;68.61;97950.31;106400;1282;97213;-90
2023/07/26 09:50:45;;;;;;;13.40;6.20;;;;;;;21.22;68.71;97950.27;106337;1282;107577;-91
2023/07/26 09:53:54;;;;;;;11.10;5.50;;;;;;;21.22;68.87;97950.27;105710;1287;95846;-91
2023/07/26 09:56:24;;;;;;;12.30;5.80;;;;;;;21.20;68.62;97949.73;105675;1287;95849;-90
2023/07/26 09:58:52;;;;;;;13.50;6.20;;;;;;;21.20;68.79;97947.28;105837;1287;111694;-91
2023/07/26 10:01:22;;;;;;;10.40;5.50;;;;;;;21.20;68.48;97950.64;105865;1287;95871;-91
2023/07/26 10:04:00;;;;;;;11.30;5.90;;;;;;;21.17;68.53;97948.86;105833;1287;105877;-90
2023/07/26 10:06:32;;;;;;;14.10;6.40;;;;;;;21.15;68.43;97941.66;105797;1287;95869;-91
2023/07/26 10:09:01;;;;;;;10.20;5.80;;;;;;;21.16;68.56;97937.13;105790;1287;95828;-91
2023/07/26 10:11:30;;;;;;;11.50;5.90;;;;;;;21.16;68.37;97934.05;105970;1283;111202;-91
2023/07/26 10:14:00;;;;;;;11.50;6.40;;;;;;;21.11;68.06;97933.80;106315;1283;95995;-90
2023/07/26 10:16:29;;;;;;;11.30;6.00;;;;;;;21.13;68.36;97931.27;106293;1283;107533;-90
2023/07/26 10:19:00;;;;;;;14.60;6.40;;;;;;;21.20;68.60;97931.21;106279;1283;95646;-90
2023/07/26 10:21:29;;;;;;;13.20;6.30;;;;;;;21.28;68.37;97929.76;106326;1283;95941;-90
2023/07/26 10:24:02;;;;;;;13.00;6.40;;;;;;;21.32;68.19;97932.89;106311;1284;111245;-91
2023/07/26 10:26:33;;;;;;;9.90;5.50;;;;;;;21.34;68.21;97939.92;106074;1284;96116;-89
2023/07/26 10:29:02;;;;;;;13.50;6.20;;;;;;;21.36;68.19;97936.67;106303;1283;107831;-91
2023/07/26 10:31:30;;;;;;;12.00;6.20;;;;;;;21.39;68.26;97938.59;106080;1283;95683;-92
2023/07/26 10:33:58;;;;;;;13.80;6.20;;;;;;;21.40;68.18;97940.03;106350;1283;95708;-90
2023/07/26 10:36:31;;;;;;;13.10;6.80;;;;;;;21.38;68.03;97942.28;106063;1283;110389;-90
2023/07/26 10:39:04;;;;;;;;;;;;;;;21.35;67.95;97938.55;106365;1283;95719;-90
2023/07/26 10:41:35;;;;;;;14.90;7.10;;;;;;;21.30;67.62;97933.34;106041;1283;107483;-91
2023/07/26 10:44:05;;;;;;;14.10;6.50;;;;;;;21.25;67.92;97933.88;106266;1283;95771;-91
2023/07/26 10:46:54;;;;;;;14.80;7.00;;;;;;;21.27;67.89;97928.10;106093;1283;95785;-91
2023/07/26 10:49:27;;;;;;;11.10;6.00;;;;;;;21.29;67.82;97927.36;106321;1283;111432;-90
2023/07/26 10:52:02;;;;;;;13.00;6.70;;;;;;;21.30;67.86;97932.34;106327;1284;96107;-91
2023/07/26 10:54:41;;;;;;;14.30;6.80;;;;;;;21.33;67.86;97936.13;106100;1282;106224;-90
2023/07/26 10:57:12;;;;;;;15.10;7.40;;;;;;;21.33;67.73;97935.45;106142;1283;95832;-90
2023/07/26 11:00:05;;;;;;;13.30;6.40;;;;;;;21.30;67.52;97941.20;106392;1282;95618;-91
2023/07/26 11:02:37;;;;;;;14.30;6.70;;;;;;;21.20;67.29;97938.74;106396;1282;111421;-90
2023/07/26 11:05:14;;;;;;;15.80;6.80;;;;;;;21.11;67.38;97939.58;106390;1282;95678;-90
2023/07/26 11:08:07;;;;;;;14.00;6.90;;;;;;;21.04;67.47;97935.88;106405;1282;107669;-91
2023/07/26 11:11:16;;;;;;;15.10;7.00;;;;;;;21.04;67.58;97935.58;106406;1282;95740;-91
2023/07/26 11:13:51;;;;;;;15.10;7.20;;;;;;;21.04;67.61;97937.12;106419;1282;95734;-91
2023/07/26 11:16:19;;;;;;;12.80;6.70;;;;;;;21.03;67.58;97940.86;106393;1282;111435;-92
2023/07/26 11:18:47;;;;;;;15.40;7.00;;;;;;;21.03;67.58;97937.95;106396;1282;96041;-91
2023/07/26 11:21:15;;;;;;;12.10;6.50;;;;;;;21.02;67.62;97935.21;106322;1282;107774;-91
2023/07/26 11:23:45;;;;;;;14.60;7.70;;;;;;;21.05;67.69;97937.73;106360;1282;95620;-91
2023/07/26 11:26:14;;;;;;;15.10;7.70;;;;;;;21.07;67.67;97938.37;106421;1281;95968;-91
2023/07/26 11:28:42;;;;;;;17.60;8.30;;;;;;;21.06;67.62;97935.52;106486;1282;110063;-92
2023/07/26 11:31:39;;;;;;;15.70;7.30;;;;;;;21.05;67.64;97936.17;106525;1282;95641;-90
2023/07/26 11:34:14;;;;;;;13.60;7.60;;;;;;;20.99;67.51;97931.88;106255;1285;107853;-90
2023/07/26 11:36:43;;;;;;;14.20;7.60;;;;;;;20.89;67.36;97932.12;106038;1284;95670;-91
2023/07/26 11:39:25;;;;;;;16.80;8.30;;;;;;;20.76;67.51;97931.67;106293;1284;95721;-90
2023/07/26 11:41:54;;;;;;;15.70;8.20;;;;;;;20.64;67.72;97929.80;106270;1283;111414;-91
2023/07/26 11:44:22;;;;;;;13.10;6.80;;;;;;;20.64;67.90;97930.48;106195;1284;96038;-90
2023/07/26 11:46:50;;;;;;;15.90;7.70;;;;;;;20.65;67.67;97932.88;105862;1284;109164;-91
2023/07/26 11:49:20;;;;;;;17.10;7.90;;;;;;;20.57;67.66;97932.33;106214;1284;95723;-91
2023/07/26 11:51:50;;;;;;;16.60;8.40;;;;;;;20.54;67.77;97931.23;106253;1283;95641;-91
2023/07/26 11:54:19;;;;;;;15.40;7.30;;;;;;;20.58;67.79;97931.33;106262;1283;111540;-90
2023/07/26 11:56:48;;;;;;;14.70;7.60;;;;;;;20.61;68.02;97932.45;106218;1283;95697;-89
2023/07/26 11:59:17;;;;;;;13.40;6.70;;;;;;;20.64;67.95;97934.52;106058;1284;107808;-90
2023/07/26 12:01:47;;;;;;;18.40;7.00;;;;;;;20.65;67.87;97935.92;106206;1283;95720;-90
2023/07/26 12:04:16;;;;;;;16.90;7.50;;;;;;;20.65;67.74;97933.42;106224;1284;95693;-91
2023/07/26 12:06:50;;;;;;;14.60;8.00;;;;;;;20.65;67.78;97928.40;106019;1284;111281;-90
2023/07/26 12:09:18;;;;;;;13.30;6.70;;;;;;;20.63;67.67;97930.39;106220;1284;95790;-90
2023/07/26 12:11:53;;;;;;;13.10;6.90;;;;;;;20.59;67.80;97932.25;106048;1284;107629;-90
2023/07/26 12:14:21;;;;;;;17.30;7.80;;;;;;;20.53;67.73;97935.56;106190;1283;95639;-89
2023/07/26 12:16:53;;;;;;;14.70;7.70;;;;;;;20.46;67.69;97932.87;106229;1284;95674;-90
2023/07/26 12:19:24;;;;;;;15.80;8.10;;;;;;;20.40;67.79;97938.17;106033;1284;111985;-91
2023/07/26 12:21:52;;;;;;;18.80;9.30;;;;;;;20.32;67.91;97940.27;106197;1283;97143;-91
2023/07/26 12:24:23;;;;;;;17.60;8.90;;;;;;;20.27;67.88;97943.49;106023;1284;107516;-90
2023/07/26 12:26:51;;;;;;;15.20;8.20;;;;;;;20.21;68.08;97946.34;106147;1283;96030;-90
2023/07/26 12:29:50;;;;;;;19.20;8.90;;;;;;;20.12;68.03;97945.11;106211;1284;95641;-90
2023/07/26 12:32:18;;;;;;;18.60;9.20;;;;;;;20.01;68.18;97950.61;106085;1284;110239;-91
2023/07/26 12:34:46;;;;;;;18.50;10.00;;;;;;;19.94;68.23;97953.64;106153;1284;95878;-90
2023/07/26 12:37:14;;;;;;;17.00;9.30;;;;;;;19.89;68.37;97955.36;106181;1284;107795;-90
2023/07/26 12:39:45;;;;;;;18.50;10.00;;;;;;;19.83;68.30;97954.63;106205;1283;95758;-91
2023/07/26 12:42:13;;;;;;;20.50;11.60;;;;;;;19.80;68.45;97954.73;106198;1284;95689;-91
2023/07/26 12:44:41;;;;;;;21.00;10.70;;;;;;;19.73;68.41;97952.30;106212;1284;109594;-90
2023/07/26 12:47:10;;;;;;;19.90;11.60;;;;;;;19.68;68.38;97956.25;106211;1284;95673;-90
2023/07/26 12:50:01;;;;;;;22.50;11.30;;;;;;;19.61;68.57;97957.08;106227;1284;107901;-91
2023/07/26 12:52:29;;;;;;;20.70;10.80;;;;;;;19.59;68.68;97963.45;106164;1284;95816;-90
2023/07/26 12:54:58;;;;;;;19.30;11.40;;;;;;;19.55;68.86;97965.09;106269;1284;95661;-91
2023/07/26 12:57:26;;;;;;;20.70;11.10;;;;;;;19.47;68.75;97972.00;106232;1284;111433;-91
2023/07/26 12:59:55;;;;;;;20.70;10.60;;;;;;;19.41;69.02;97971.77;106232;1284;95902;-91
2023/07/26 13:02:22;;;;;;;18.90;10.60;;;;;;;19.34;68.84;97976.71;106207;1283;107930;-91
2023/07/26 13:04:51;;;;;;;20.20;10.10;;;;;;;19.27;68.99;97977.36;106202;1284;95633;-91
2023/07/26 13:07:19;;;;;;;19.40;10.20;;;;;;;19.22;69.23;97984.19;106241;1284;95675;-91
2023/07/26 13:09:48;;;;;;;16.20;8.80;;;;;;;19.13;69.19;97985.12;106194;1285;111548;-91
2023/07/26 13:12:16;;;;;;;18.70;9.30;;;;;;;19.08;69.17;97990.13;106239;1284;95759;-91
2023/07/26 13:14:44;;;;;;;18.40;9.80;;;;;;;19.02;69.12;97996.30;106209;1283;107928;-91
2023/07/26 13:17:12;;;;;;;17.20;9.20;;;;;;;18.99;69.39;98000.86;106178;1285;95639;-91
2023/07/26 13:19:40;;;;;;;15.80;7.70;;;;;;;18.97;69.78;98001.42;106212;1284;95677;-91
2023/07/26 13:22:08;;;;;;;14.60;7.40;;;;;;;18.86;69.50;98007.79;106225;1284;111369;-90
2023/07/26 13:24:37;;;;;;;14.30;7.50;;;;;;;18.76;69.71;98014.81;106240;1284;95663;-89
2023/07/26 13:27:05;;;;;;;17.30;7.20;;;;;;;18.69;69.53;98015.28;106206;1284;107682;-90
2023/07/26 13:29:34;;;;;;;12.80;6.30;;;;;;;18.66;69.53;98020.84;106225;1283;95631;-91
2023/07/26 13:32:02;;;;;;;13.00;5.80;;;;;;;18.61;69.97;98022.88;106238;1285;95660;-91
2023/07/26 13:34:30;;;;;;;12.70;6.80;;;;;;;18.53;69.83;98028.85;106179;1284;110539;-91
2023/07/26 13:36:58;;;;;;;14.40;6.50;;;;;;;18.47;69.71;98024.09;106240;1283;95672;-91
2023/07/26 13:39:27;;;;;;;12.50;5.80;;;;;;;18.37;69.88;98030.00;106228;1283;107637;-91
2023/07/26 13:41:55;;;;;;;10.00;5.40;;;;;;;18.25;69.80;98031.55;106229;1283;95616;-91
2023/07/26 13:44:23;;;;;;;8.70;5.00;;;;;;;18.17;70.18;98034.46;106269;1284;97458;-91
2023/07/26 13:46:51;;;;;;;10.70;5.60;;;;;;;18.09;70.02;98034.00;106220;1284;111030;-91
2023/07/26 13:49:22;;;;;;;12.80;5.50;;;;;;;18.03;70.11;98039.58;106244;1284;95663;-91
2023/07/26 13:51:50;;;;;;;10.20;4.80;;;;;;;17.98;70.19;98040.52;106225;1284;107827;-91
2023/07/26 13:54:19;;;;;;;9.80;5.20;;;;;;;17.94;70.49;98047.94;105994;1284;96232;-91
2023/07/26 13:56:47;;;;;;;11.00;5.20;;;;;;;17.87;70.38;98049.14;106285;1283;95747;-92
2023/07/26 13:59:15;;;;;;;7.90;4.60;;;;;;;17.85;70.43;98053.98;106248;1283;110395;-91
2023/07/26 14:01:43;;;;;;;7.30;4.70;;;;;;;17.81;70.63;98058.23;106077;1284;95726;-91
2023/07/26 14:04:10;;;;;;;8.50;4.40;;;;;;;17.72;71.30;98059.73;106198;1285;107707;-91
2023/07/26 14:06:39;;;;;;;8.30;3.90;;;;;;;17.63;71.17;98059.91;106197;1284;96025;-89
2023/07/26 14:09:08;;;;;;;8.40;4.30;;;;;;;17.56;70.96;98064.60;106254;1284;95848;-91
2023/07/26 14:11:36;;;;;;;4.40;3.40;;;;;;;17.55;71.18;98068.84;106222;1284;111470;-90
2023/07/26 14:14:03;;;;;;;8.10;4.20;;;;;;;17.54;71.29;98072.61;106240;1284;95794;-91
2023/07/26 14:16:32;;;;;;;7.60;4.40;;;;;;;17.53;71.01;98076.29;106001;1284;107663;-91
2023/07/26 14:19:00;;;;;;;8.90;4.60;;;;;;;17.53;71.26;98081.80;106231;1284;95763;-92
2023/07/26 14:21:28;;;;;;;10.10;4.70;;;;;;;17.53;71.59;98088.87;106057;1284;95748;-91
2023/07/26 14:23:57;;;;;;;9.50;4.10;;;;;;;17.47;71.34;98087.61;106262;1285;111293;-90
2023/07/26 14:26:25;;;;;;;10.40;4.20;;;;;;;17.42;71.56;98092.45;106180;1285;96154;-90
2023/07/26 14:28:55;;;;;;;8.90;4.80;;;;;;;17.38;71.64;98093.04;106228;1284;107282;-91
2023/07/26 14:31:25;;;;;;;9.50;5.20;;;;;;;17.38;71.44;98091.05;106221;1285;95683;-92
2023/07/26 14:33:53;;;;;;;8.50;4.60;;;;;;;17.43;71.67;98093.08;106281;1285;95709;-91
2023/07/26 14:36:21;;;;;;;9.00;4.70;;;;;;;17.43;71.80;98097.02;106070;1284;110531;-90
2023/07/26 14:38:49;;;;;;;9.00;4.40;;;;;;;17.41;71.84;98096.98;106221;1284;95818;-91
2023/07/26 14:41:19;;;;;;;9.10;4.30;;;;;;;17.39;71.91;98093.77;106258;1283;107924;-91
2023/07/26 14:43:48;;;;;;;5.40;3.80;;;;;;;17.39;71.98;98095.09;106189;1284;95761;-91
2023/07/26 14:46:16;;;;;;;9.20;4.40;;;;;;;17.39;72.16;98092.89;106046;1285;95795;-92
2023/07/26 14:48:44;;;;;;;6.00;3.70;;;;;;;17.39;72.06;98088.68;106213;1284;110913;-91
2023/07/26 14:51:12;;;;;;;6.80;4.00;;;;;;;17.38;72.04;98086.13;106256;1284;96084;-90
2023/07/26 14:53:40;;;;;;;7.60;3.90;;;;;;;17.36;72.54;98087.08;106034;1284;107827;-90
2023/07/26 14:56:08;;;;;;;5.90;3.60;;;;;;;17.31;72.52;98083.11;106173;1285;96098;-91
2023/07/26 14:58:36;;;;;;;7.50;3.90;;;;;;;17.27;72.48;98081.30;106274;1284;96931;-90
2023/07/26 15:01:04;;;;;;;6.50;4.10;;;;;;;17.26;72.30;98078.35;106253;1284;109927;-89
2023/07/26 15:03:32;;;;;;;7.90;4.10;;;;;;;17.28;72.72;98079.02;106249;1284;95781;-91
2023/07/26 15:06:03;;;;;;;6.80;4.00;;;;;;;17.25;72.53;98078.47;106224;1284;107702;-91
2023/07/26 15:08:31;;;;;;;8.70;4.10;;;;;;;17.22;72.31;98079.31;106225;1283;95785;-90
2023/07/26 15:10:59;;;;;;;7.00;3.80;;;;;;;17.23;72.45;98081.86;106249;1285;95845;-91
2023/07/26 15:13:27;;;;;;;7.10;3.80;;;;;;;17.26;72.44;98085.68;106239;1284;111278;-91
2023/07/26 15:15:55;;;;;;;5.80;3.20;;;;;;;17.26;72.35;98086.38;106029;1284;95947;-91
2023/07/26 15:18:25;;;;;;;7.30;3.80;;;;;;;17.25;72.65;98094.25;106215;1284;107461;-91
2023/07/26 15:20:53;;;;;;;7.10;3.60;;;;;;;17.22;72.49;98094.44;106233;1284;95801;-90
2023/07/26 15:23:21;;;;;;;4.50;3.30;;;;;;;17.19;72.62;98100.46;106238;1284;95618;-91
2023/07/26 15:25:50;;;;;;;6.70;3.30;;;;;;;17.17;72.76;98101.08;106054;1283;111943;-90
2023/07/26 15:28:18;;;;;;;6.80;3.30;;;;;;;17.12;72.88;98103.64;106217;1285;95753;-91
2023/07/26 15:30:46;;;;;;;3.50;2.70;;;;;;;17.07;73.00;98112.17;106206;1285;107771;-91
2023/07/26 15:33:14;;;;;;;5.90;2.40;;;;;;;17.02;72.89;98112.13;106211;1284;95790;-91
2023/07/26 15:35:42;;;;;;;7.90;2.90;;;;;;;16.96;73.26;98115.21;106248;1284;95805;-90
2023/07/26 15:38:10;;;;;;;4.70;2.70;;;;;;;16.92;72.95;98116.07;106183;1284;111462;-90
2023/07/26 15:40:39;;;;;;;2.80;2.30;;;;;;;16.91;73.51;98118.70;106231;1285;96121;-91
2023/07/26 15:43:09;;;;;;;2.70;2.00;;;;;;;16.88;73.48;98123.09;106203;1285;107621;-90
2023/07/26 15:45:40;;;;;;;3.50;2.10;;;;;;;16.84;73.51;98124.48;106191;1285;95828;-91
2023/07/26 15:48:11;;;;;;;3.00;2.00;;;;;;;16.79;73.69;98126.20;106258;1285;96073;-91
2023/07/26 15:50:40;;;;;;;3.70;1.90;;;;;;;16.75;73.25;98132.63;106226;1283;111533;-90
2023/07/26 15:53:11;;;;;;;2.70;1.90;;;;;;;16.75;73.34;98134.58;106292;1284;95685;-90
2023/07/26 15:55:39;;;;;;;2.00;1.80;;;;;;;16.77;73.40;98139.90;106280;1285;107800;-92
2023/07/26 15:58:07;;;;;;;4.20;1.70;;;;;;;16.74;73.53;98147.90;106188;1283;95823;-90
2023/07/26 16:00:35;;;;;;;2.90;1.70;;;;;;;16.70;73.45;98148.95;106245;1285;95736;-91
2023/07/26 16:03:03;;;;;;;5.00;2.40;;;;;;;16.67;73.37;98151.39;106200;1288;111002;-91
2023/07/26 16:05:32;;;;;;;3.00;1.80;;;;;;;16.63;73.27;98158.63;106037;1283;96032;-90
2023/07/26 16:08:03;;;;;;;2.40;1.60;;;;;;;16.63;73.34;98158.13;106147;1285;107840;-91
2023/07/26 16:10:34;;;;;;;1.80;1.20;;;;;;;16.56;73.11;98159.45;105999;1284;96321;-90
2023/07/26 16:13:02;;;;;;;3.20;1.60;;;;;;;16.44;73.32;98165.42;106192;1285;96679;-90
2023/07/26 16:15:30;;;;;;;1.90;1.40;;;;;;;16.26;73.25;98174.73;106153;1285;110757;-90
2023/07/26 16:18:01;;;;;;;3.80;1.40;;;;;;;16.11;73.37;98180.90;106195;1285;95720;-91
2023/07/26 16:20:33;;;;;;;2.30;1.30;;;;;;;15.99;73.15;98182.20;106171;1285;106107;-90
2023/07/26 16:23:03;;;;;;;2.00;1.30;;;;;;;15.91;73.34;98187.48;106107;1285;96273;-92
2023/07/26 16:25:31;;;;;;;2.70;1.40;;;;;;;15.81;73.44;98197.44;106094;1285;96116;-90
2023/07/26 16:27:59;;;;;;;4.60;1.60;;;;;;;15.73;73.17;98206.77;106126;1285;109884;-90
2023/07/26 16:30:27;;;;;;;2.10;1.70;;;;;;;15.63;73.39;98206.38;106148;1285;95774;-91
2023/07/26 16:32:58;;;;;;;1.70;1.60;;;;;;;15.54;73.61;98207.36;106134;1284;107638;-91
2023/07/26 16:35:27;;;;;;;1.90;1.50;;;;;;;15.43;73.76;98207.58;106125;1285;95773;-91
2023/07/26 16:37:55;;;;;;;2.90;1.70;;;;;;;15.34;73.98;98213.21;106217;1284;96572;-91
2023/07/26 16:40:23;;;;;;;2.90;1.60;;;;;;;15.28;73.84;98211.55;106156;1285;110364;-90
2023/07/26 16:42:51;;;;;;;4.10;1.80;;;;;;;15.25;73.88;98214.94;106030;1284;95906;-90
2023/07/26 16:45:19;;;;;;;2.30;1.70;;;;;;;15.20;73.96;98224.90;106157;1284;107374;-90
2023/07/26 16:47:47;;;;;;;5.30;2.40;;;;;;;15.18;73.81;98228.83;106107;1284;97098;-91
2023/07/26 16:50:16;;;;;;;2.10;1.90;;;;;;;15.17;73.74;98227.16;106058;1285;95765;-91
2023/07/26 16:52:44;;;;;;;3.10;1.80;;;;;;;15.12;73.81;98231.75;106182;1284;112045;-90
2023/07/26 16:55:11;;;;;;;6.30;2.40;;;;;;;15.08;73.69;98232.02;106157;1284;95742;-92
2023/07/26 16:57:39;;;;;;;6.80;2.60;;;;;;;15.10;73.85;98232.55;106116;1285;107831;-91
2023/07/26 17:00:08;;;;;;;4.00;2.30;;;;;;;15.08;73.99;98237.50;106132;1285;96704;-90
2023/07/26 17:02:37;;;;;;;3.90;1.90;;;;;;;15.07;73.76;98245.73;106131;1285;95979;-90
2023/07/26 17:05:06;;;;;;;3.20;2.10;;;;;;;15.01;73.92;98249.36;106001;1285;111507;-90
2023/07/26 17:07:34;;;;;;;7.00;2.20;;;;;;;14.93;73.83;98245.48;106139;1285;95790;-91
2023/07/26 17:10:02;;;;;;;3.90;2.20;;;;;;;14.88;73.91;98250.52;106130;1285;108396;-89
2023/07/26 17:12:30;;;;;;;4.20;2.50;;;;;;;14.81;73.75;98247.28;106179;1285;95894;-91
2023/07/26 17:14:58;;;;;;;4.70;2.40;;;;;;;14.75;73.68;98245.95;106001;1285;95688;-90
2023/07/26 17:17:27;;;;;;;4.00;1.70;;;;;;;14.75;73.87;98253.61;106164;1285;110871;-90
2023/07/26 17:19:55;;;;;;;4.90;2.30;;;;;;;14.69;74.05;98261.17;106183;1285;95715;-91
2023/07/26 17:22:23;;;;;;;5.70;2.50;;;;;;;14.64;73.61;98261.17;106136;1285;107621;-92
2023/07/26 17:24:51;;;;;;;3.30;2.00;;;;;;;14.62;73.77;98265.83;106123;1285;95837;-91
2023/07/26 17:27:20;;;;;;;4.70;2.20;;;;;;;14.58;73.75;98260.07;105983;1286;95825;-91
2023/07/26 17:29:48;;;;;;;4.80;2.50;;;;;;;14.55;73.92;98268.47;106135;1285;110912;-90
2023/07/26 17:32:17;;;;;;;7.30;2.60;;;;;;;14.49;74.03;98269.93;106166;1285;96081;-91
2023/07/26 17:34:45;;;;;;;4.40;2.10;;;;;;;14.44;73.78;98275.59;106094;1285;107851;-90
2023/07/26 17:37:13;;;;;;;3.30;2.30;;;;;;;14.47;73.67;98281.96;106143;1284;95692;-90
2023/07/26 17:39:41;;;;;;;7.40;2.70;;;;;;;14.51;73.83;98285.23;106093;1285;96182;-91
2023/07/26 17:42:09;;;;;;;4.10;2.00;;;;;;;14.53;73.84;98284.74;106035;1285;110872;-90
2023/07/26 17:44:38;;;;;;;6.00;2.50;;;;;;;14.50;74.11;98291.45;106145;1285;95882;-92
2023/07/26 17:47:06;;;;;;;2.30;2.10;;;;;;;14.43;74.19;98296.89;106142;1284;107368;-91
2023/07/26 17:49:34;;;;;;;5.20;2.50;;;;;;;14.39;73.99;98293.73;106117;1285;95883;-91
2023/07/26 17:52:02;;;;;;;6.40;2.50;;;;;;;14.36;74.28;98299.04;106192;1285;95694;-90
2023/07/26 17:54:35;;;;;;;3.90;2.20;;;;;;;14.34;74.02;98301.59;106147;1285;110208;-89
2023/07/26 17:57:04;;;;;;;2.50;2.30;;;;;;;14.37;74.00;98304.54;105855;1284;95962;-91
2023/07/26 17:59:37;;;;;;;6.90;2.50;;;;;;;14.36;74.22;98307.29;106085;1286;106477;-91
2023/07/26 18:02:06;;;;;;;6.60;2.70;;;;;;;14.33;74.14;98313.83;106037;1285;95811;-92
2023/07/26 18:04:35;;;;;;;4.70;2.40;;;;;;;14.31;73.97;98319.52;105991;1285;95812;-90
2023/07/26 18:07:03;;;;;;;7.70;3.60;;;;;;;14.31;74.09;98321.19;106239;1284;112357;-91
2023/07/26 18:09:33;;;;;;;4.80;2.20;;;;;;;14.29;74.30;98327.59;106026;1285;95834;-90
2023/07/26 18:12:02;;;;;;;2.50;2.00;;;;;;;14.23;74.17;98329.63;106141;1285;107681;-90
2023/07/26 18:14:31;;;;;;;3.40;2.10;;;;;;;14.18;74.38;98330.85;106135;1284;95720;-91
2023/07/26 18:16:58;;;;;;;4.30;2.60;;;;;;;14.11;74.36;98332.36;106022;1289;95688;-90
2023/07/26 18:19:26;;;;;;;6.60;3.20;;;;;;;14.10;74.37;98337.88;106152;1285;111231;-91
2023/07/26 18:21:54;;;;;;;4.40;2.40;;;;;;;14.07;74.36;98337.38;106186;1286;96080;-90
2023/07/26 18:24:22;;;;;;;4.10;2.50;;;;;;;14.08;74.28;98341.64;106168;1286;107680;-91
2023/07/26 18:26:51;;;;;;;5.80;2.30;;;;;;;14.10;74.33;98346.80;106117;1284;95844;-90
2023/07/26 18:29:20;;;;;;;5.40;2.70;;;;;;;14.10;74.21;98349.05;106202;1284;95738;-92
2023/07/26 18:31:48;;;;;;;5.20;2.90;;;;;;;14.16;74.36;98356.33;106148;1284;110067;-90
2023/07/26 18:34:16;;;;;;;4.20;2.70;;;;;;;14.19;74.16;98358.56;106158;1285;97227;-91
2023/07/26 18:36:44;;;;;;;5.50;3.00;;;;;;;14.20;74.14;98358.95;106140;1286;107249;-91
2023/07/26 18:39:12;;;;;;;6.40;2.50;;;;;;;14.21;74.17;98361.03;106121;1285;95827;-90
2023/07/26 18:42:02;;;;;;;11.70;3.30;;;;;;;14.22;74.35;98361.78;106284;1284;95724;-91
2023/07/26 18:44:36;;;;;;;7.00;3.40;;;;;;;14.24;74.22;98361.83;106047;1286;111654;-91
2023/07/26 18:47:24;;;;;;;2.60;2.00;;;;;;;14.25;74.21;98362.08;106080;1286;96122;-92
2023/07/26 18:54:06;;;;;;;5.70;2.40;;;;;;;14.23;74.20;98376.16;106308;1286;95882;-91
2023/07/26 18:57:06;;;;;;;6.40;2.60;;;;;;;14.25;74.17;98382.23;106148;1285;95807;-92
2023/07/26 18:59:35;;;;;;;4.20;2.70;;;;;;;14.28;74.30;98387.74;106248;1285;110938;-92
2023/07/26 19:02:05;;;;;;;5.30;2.90;;;;;;;14.30;74.13;98390.77;106065;1286;97175;-92
2023/07/26 19:07:49;;;;;;;8.80;3.30;;;;;;;14.34;74.30;98395.39;106191;1285;95830;-92
2023/07/26 19:10:20;;;;;;;8.10;3.80;;;;;;;14.35;74.32;98401.25;105968;1288;95763;-91
2023/07/26 19:12:49;;;;;;;7.70;3.00;;;;;;;14.37;74.29;98405.83;105875;1286;112051;-91
2023/07/26 19:15:18;;;;;;;5.80;3.30;;;;;;;14.38;74.26;98405.36;105913;1286;95952;-91
2023/07/26 19:18:07;;;;;;;9.60;3.30;;;;;;;14.40;74.26;98406.21;106122;1286;107732;-91
2023/07/26 19:20:39;;;;;;;9.60;3.50;;;;;;;14.41;74.36;98411.35;106132;1285;95784;-92
2023/07/26 19:23:09;;;;;;;9.30;3.50;;;;;;;14.38;74.40;98407.54;106053;1286;95729;-92
